sensor_id;sensor_type;location;lat;lon;timestamp;P1;durP1;ratioP1;P2;durP2;ratioP2
57627;SDS011;43451;49.060;10.616;2023-07-13T00:01:51;5.55;;;3.30;;
57627;SDS011;43451;49.060;10.616;2023-07-13T00:04:17;4.33;;;2.90;;
57627;SDS011;43451;49.060;10.616;2023-07-13T00:06:44;5.82;;;3.20;;
57627;SDS011;43451;49.060;10.616;2023-07-13T00:09:12;3.88;;;3.40;;
57627;SDS011;43451;49.060;10.616;2023-07-13T00:11:39;6.78;;;3.72;;
57627;SDS011;43451;49.060;10.616;2023-07-13T00:14:05;6.45;;;3.30;;
57627;SDS011;43451;49.060;10.616;2023-07-13T00:16:33;4.70;;;3.20;;
57627;SDS011;43451;49.060;10.616;2023-07-13T00:18:59;7.03;;;3.20;;
57627;SDS011;43451;49.060;10.616;2023-07-13T00:21:26;4.82;;;3.00;;
57627;SDS011;43451;49.060;10.616;2023-07-13T00:23:52;4.50;;;3.10;;
57627;SDS011;43451;49.060;10.616;2023-07-13T00:26:17;4.80;;;3.10;;
57627;SDS011;43451;49.060;10.616;2023-07-13T00:28:43;5.95;;;3.05;;
57627;SDS011;43451;49.060;10.616;2023-07-13T00:31:09;4.88;;;3.20;;
57627;SDS011;43451;49.060;10.616;2023-07-13T00:33:35;4.60;;;3.30;;
57627;SDS011;43451;49.060;10.616;2023-07-13T00:36:02;4.70;;;3.30;;
57627;SDS011;43451;49.060;10.616;2023-07-13T00:38:27;4.00;;;2.88;;
57627;SDS011;43451;49.060;10.616;2023-07-13T00:40:53;6.25;;;3.20;;
57627;SDS011;43451;49.060;10.616;2023-07-13T00:43:22;3.80;;;2.85;;
57627;SDS011;43451;49.060;10.616;2023-07-13T00:48:15;5.07;;;2.58;;
57627;SDS011;43451;49.060;10.616;2023-07-13T00:50:46;2.95;;;2.65;;
57627;SDS011;43451;49.060;10.616;2023-07-13T00:53:16;4.60;;;2.60;;
57627;SDS011;43451;49.060;10.616;2023-07-13T00:55:42;2.70;;;2.30;;
57627;SDS011;43451;49.060;10.616;2023-07-13T00:58:08;3.42;;;1.92;;
57627;SDS011;43451;49.060;10.616;2023-07-13T01:00:37;3.28;;;2.10;;
57627;SDS011;43451;49.060;10.616;2023-07-13T01:03:03;6.13;;;2.20;;
57627;SDS011;43451;49.060;10.616;2023-07-13T01:05:30;3.50;;;2.00;;
57627;SDS011;43451;49.060;10.616;2023-07-13T01:07:58;3.67;;;2.00;;
57627;SDS011;43451;49.060;10.616;2023-07-13T01:10:25;2.30;;;1.67;;
57627;SDS011;43451;49.060;10.616;2023-07-13T01:12:51;4.38;;;2.10;;
57627;SDS011;43451;49.060;10.616;2023-07-13T01:15:34;4.53;;;1.95;;
57627;SDS011;43451;49.060;10.616;2023-07-13T01:18:02;2.80;;;1.92;;
57627;SDS011;43451;49.060;10.616;2023-07-13T01:22:55;3.97;;;1.98;;
57627;SDS011;43451;49.060;10.616;2023-07-13T01:25:21;2.92;;;2.17;;
57627;SDS011;43451;49.060;10.616;2023-07-13T01:27:46;2.78;;;2.08;;
57627;SDS011;43451;49.060;10.616;2023-07-13T01:30:12;5.20;;;2.22;;
57627;SDS011;43451;49.060;10.616;2023-07-13T01:32:38;3.60;;;2.00;;
57627;SDS011;43451;49.060;10.616;2023-07-13T01:35:07;4.63;;;2.40;;
57627;SDS011;43451;49.060;10.616;2023-07-13T01:37:33;5.10;;;2.00;;
57627;SDS011;43451;49.060;10.616;2023-07-13T01:40:01;5.55;;;2.15;;
57627;SDS011;43451;49.060;10.616;2023-07-13T01:42:28;3.65;;;1.80;;
57627;SDS011;43451;49.060;10.616;2023-07-13T01:44:54;2.70;;;1.70;;
57627;SDS011;43451;49.060;10.616;2023-07-13T01:47:22;2.88;;;1.88;;
57627;SDS011;43451;49.060;10.616;2023-07-13T01:49:48;2.28;;;1.77;;
57627;SDS011;43451;49.060;10.616;2023-07-13T01:52:15;3.55;;;1.95;;
57627;SDS011;43451;49.060;10.616;2023-07-13T01:54:41;3.92;;;1.90;;
57627;SDS011;43451;49.060;10.616;2023-07-13T01:57:07;3.83;;;1.90;;
57627;SDS011;43451;49.060;10.616;2023-07-13T01:59:33;4.28;;;2.03;;
57627;SDS011;43451;49.060;10.616;2023-07-13T02:02:00;4.40;;;2.00;;
57627;SDS011;43451;49.060;10.616;2023-07-13T02:04:26;2.05;;;1.48;;
57627;SDS011;43451;49.060;10.616;2023-07-13T02:06:52;3.25;;;1.52;;
57627;SDS011;43451;49.060;10.616;2023-07-13T02:09:17;6.72;;;1.88;;
57627;SDS011;43451;49.060;10.616;2023-07-13T02:11:43;3.33;;;1.70;;
57627;SDS011;43451;49.060;10.616;2023-07-13T02:14:08;5.03;;;1.73;;
57627;SDS011;43451;49.060;10.616;2023-07-13T02:16:33;4.35;;;1.60;;
57627;SDS011;43451;49.060;10.616;2023-07-13T02:18:59;3.28;;;1.77;;
57627;SDS011;43451;49.060;10.616;2023-07-13T02:21:25;2.17;;;1.60;;
57627;SDS011;43451;49.060;10.616;2023-07-13T02:23:51;2.75;;;1.60;;
57627;SDS011;43451;49.060;10.616;2023-07-13T02:26:17;2.88;;;1.60;;
57627;SDS011;43451;49.060;10.616;2023-07-13T02:28:46;2.78;;;1.70;;
57627;SDS011;43451;49.060;10.616;2023-07-13T02:31:12;2.47;;;1.52;;
57627;SDS011;43451;49.060;10.616;2023-07-13T02:33:39;5.30;;;1.58;;
57627;SDS011;43451;49.060;10.616;2023-07-13T02:36:07;4.22;;;1.45;;
57627;SDS011;43451;49.060;10.616;2023-07-13T02:38:33;2.22;;;1.48;;
57627;SDS011;43451;49.060;10.616;2023-07-13T02:41:00;2.30;;;1.30;;
57627;SDS011;43451;49.060;10.616;2023-07-13T02:43:26;2.80;;;1.38;;
57627;SDS011;43451;49.060;10.616;2023-07-13T02:45:54;3.83;;;1.40;;
57627;SDS011;43451;49.060;10.616;2023-07-13T02:48:19;2.83;;;1.40;;
57627;SDS011;43451;49.060;10.616;2023-07-13T02:50:45;2.75;;;1.30;;
57627;SDS011;43451;49.060;10.616;2023-07-13T02:53:11;2.72;;;1.30;;
57627;SDS011;43451;49.060;10.616;2023-07-13T02:55:36;3.47;;;1.40;;
57627;SDS011;43451;49.060;10.616;2023-07-13T02:58:01;2.88;;;1.20;;
57627;SDS011;43451;49.060;10.616;2023-07-13T03:00:27;2.70;;;1.40;;
57627;SDS011;43451;49.060;10.616;2023-07-13T03:02:52;2.05;;;1.40;;
57627;SDS011;43451;49.060;10.616;2023-07-13T03:07:51;2.95;;;1.58;;
57627;SDS011;43451;49.060;10.616;2023-07-13T03:10:16;4.32;;;1.50;;
57627;SDS011;43451;49.060;10.616;2023-07-13T03:12:42;4.07;;;1.70;;
57627;SDS011;43451;49.060;10.616;2023-07-13T03:15:09;2.35;;;1.40;;
57627;SDS011;43451;49.060;10.616;2023-07-13T03:17:36;6.17;;;1.60;;
57627;SDS011;43451;49.060;10.616;2023-07-13T03:20:01;3.40;;;1.33;;
57627;SDS011;43451;49.060;10.616;2023-07-13T03:22:28;3.72;;;1.50;;
57627;SDS011;43451;49.060;10.616;2023-07-13T03:24:54;2.95;;;1.50;;
57627;SDS011;43451;49.060;10.616;2023-07-13T03:27:22;3.05;;;1.70;;
57627;SDS011;43451;49.060;10.616;2023-07-13T03:29:47;2.35;;;1.60;;
57627;SDS011;43451;49.060;10.616;2023-07-13T03:32:14;3.03;;;1.60;;
57627;SDS011;43451;49.060;10.616;2023-07-13T03:34:39;3.65;;;1.52;;
57627;SDS011;43451;49.060;10.616;2023-07-13T03:37:05;5.57;;;1.50;;
57627;SDS011;43451;49.060;10.616;2023-07-13T03:39:30;2.25;;;1.50;;
57627;SDS011;43451;49.060;10.616;2023-07-13T03:42:00;3.65;;;1.83;;
57627;SDS011;43451;49.060;10.616;2023-07-13T03:44:26;3.10;;;1.73;;
57627;SDS011;43451;49.060;10.616;2023-07-13T03:46:52;3.58;;;1.60;;
57627;SDS011;43451;49.060;10.616;2023-07-13T03:49:18;4.43;;;1.67;;
57627;SDS011;43451;49.060;10.616;2023-07-13T03:51:43;2.28;;;1.55;;
57627;SDS011;43451;49.060;10.616;2023-07-13T03:54:09;2.92;;;1.60;;
57627;SDS011;43451;49.060;10.616;2023-07-13T03:56:34;2.35;;;1.40;;
57627;SDS011;43451;49.060;10.616;2023-07-13T03:59:00;3.17;;;1.70;;
57627;SDS011;43451;49.060;10.616;2023-07-13T04:01:26;3.30;;;1.70;;
57627;SDS011;43451;49.060;10.616;2023-07-13T04:03:52;2.67;;;1.63;;
57627;SDS011;43451;49.060;10.616;2023-07-13T04:06:26;3.60;;;1.50;;
57627;SDS011;43451;49.060;10.616;2023-07-13T04:08:55;3.30;;;1.70;;
57627;SDS011;43451;49.060;10.616;2023-07-13T04:11:23;3.47;;;1.50;;
57627;SDS011;43451;49.060;10.616;2023-07-13T04:13:51;3.83;;;1.50;;
57627;SDS011;43451;49.060;10.616;2023-07-13T04:16:17;3.20;;;1.65;;
57627;SDS011;43451;49.060;10.616;2023-07-13T04:18:44;2.78;;;1.70;;
57627;SDS011;43451;49.060;10.616;2023-07-13T04:21:10;1.67;;;1.50;;
57627;SDS011;43451;49.060;10.616;2023-07-13T04:23:36;2.00;;;1.48;;
57627;SDS011;43451;49.060;10.616;2023-07-13T04:26:02;2.20;;;1.50;;
57627;SDS011;43451;49.060;10.616;2023-07-13T04:28:29;3.63;;;1.88;;
57627;SDS011;43451;49.060;10.616;2023-07-13T04:30:55;2.63;;;1.52;;
57627;SDS011;43451;49.060;10.616;2023-07-13T04:33:21;5.38;;;1.80;;
57627;SDS011;43451;49.060;10.616;2023-07-13T04:35:52;2.47;;;1.60;;
57627;SDS011;43451;49.060;10.616;2023-07-13T04:38:26;4.13;;;1.77;;
57627;SDS011;43451;49.060;10.616;2023-07-13T04:40:55;3.88;;;1.83;;
57627;SDS011;43451;49.060;10.616;2023-07-13T04:43:21;2.92;;;1.80;;
57627;SDS011;43451;49.060;10.616;2023-07-13T04:45:48;3.47;;;1.80;;
57627;SDS011;43451;49.060;10.616;2023-07-13T04:48:13;5.13;;;1.63;;
57627;SDS011;43451;49.060;10.616;2023-07-13T04:50:38;3.20;;;1.92;;
57627;SDS011;43451;49.060;10.616;2023-07-13T04:53:04;2.70;;;1.75;;
57627;SDS011;43451;49.060;10.616;2023-07-13T04:55:30;4.38;;;1.58;;
57627;SDS011;43451;49.060;10.616;2023-07-13T04:57:55;2.08;;;1.55;;
57627;SDS011;43451;49.060;10.616;2023-07-13T05:00:23;4.65;;;1.70;;
57627;SDS011;43451;49.060;10.616;2023-07-13T05:02:49;2.92;;;1.63;;
57627;SDS011;43451;49.060;10.616;2023-07-13T05:05:15;4.18;;;1.70;;
57627;SDS011;43451;49.060;10.616;2023-07-13T05:07:41;4.60;;;1.70;;
57627;SDS011;43451;49.060;10.616;2023-07-13T05:10:07;3.90;;;1.67;;
57627;SDS011;43451;49.060;10.616;2023-07-13T05:12:33;2.35;;;1.75;;
57627;SDS011;43451;49.060;10.616;2023-07-13T05:14:58;2.65;;;1.60;;
57627;SDS011;43451;49.060;10.616;2023-07-13T05:17:24;2.20;;;1.50;;
57627;SDS011;43451;49.060;10.616;2023-07-13T05:19:50;3.33;;;1.67;;
57627;SDS011;43451;49.060;10.616;2023-07-13T05:22:15;2.55;;;1.30;;
57627;SDS011;43451;49.060;10.616;2023-07-13T05:24:41;2.78;;;1.55;;
57627;SDS011;43451;49.060;10.616;2023-07-13T05:27:06;3.83;;;1.55;;
57627;SDS011;43451;49.060;10.616;2023-07-13T05:29:32;2.92;;;1.50;;
57627;SDS011;43451;49.060;10.616;2023-07-13T05:31:57;4.43;;;1.60;;
57627;SDS011;43451;49.060;10.616;2023-07-13T05:34:23;2.08;;;1.20;;
57627;SDS011;43451;49.060;10.616;2023-07-13T05:36:49;3.08;;;1.40;;
57627;SDS011;43451;49.060;10.616;2023-07-13T05:39:15;4.00;;;1.58;;
57627;SDS011;43451;49.060;10.616;2023-07-13T05:41:41;5.53;;;1.48;;
57627;SDS011;43451;49.060;10.616;2023-07-13T05:44:06;3.80;;;1.58;;
57627;SDS011;43451;49.060;10.616;2023-07-13T05:46:32;2.25;;;1.40;;
57627;SDS011;43451;49.060;10.616;2023-07-13T05:48:58;2.67;;;1.08;;
57627;SDS011;43451;49.060;10.616;2023-07-13T05:51:24;2.88;;;1.40;;
57627;SDS011;43451;49.060;10.616;2023-07-13T05:53:50;3.50;;;1.45;;
57627;SDS011;43451;49.060;10.616;2023-07-13T05:56:15;3.13;;;1.38;;
57627;SDS011;43451;49.060;10.616;2023-07-13T05:58:44;3.70;;;1.40;;
57627;SDS011;43451;49.060;10.616;2023-07-13T06:01:12;3.10;;;1.40;;
57627;SDS011;43451;49.060;10.616;2023-07-13T06:03:39;3.15;;;1.23;;
57627;SDS011;43451;49.060;10.616;2023-07-13T06:06:05;4.55;;;1.20;;
57627;SDS011;43451;49.060;10.616;2023-07-13T06:08:32;2.88;;;1.23;;
57627;SDS011;43451;49.060;10.616;2023-07-13T06:11:05;5.47;;;1.60;;
57627;SDS011;43451;49.060;10.616;2023-07-13T06:13:37;4.80;;;1.30;;
57627;SDS011;43451;49.060;10.616;2023-07-13T06:16:03;4.95;;;1.50;;
57627;SDS011;43451;49.060;10.616;2023-07-13T06:18:30;3.35;;;1.40;;
57627;SDS011;43451;49.060;10.616;2023-07-13T06:20:56;3.60;;;1.42;;
57627;SDS011;43451;49.060;10.616;2023-07-13T06:23:22;1.42;;;1.17;;
57627;SDS011;43451;49.060;10.616;2023-07-13T06:25:48;2.28;;;1.20;;
57627;SDS011;43451;49.060;10.616;2023-07-13T06:28:13;3.38;;;1.45;;
57627;SDS011;43451;49.060;10.616;2023-07-13T06:30:39;2.13;;;1.20;;
57627;SDS011;43451;49.060;10.616;2023-07-13T06:33:05;4.03;;;1.50;;
57627;SDS011;43451;49.060;10.616;2023-07-13T06:35:31;3.95;;;1.40;;
57627;SDS011;43451;49.060;10.616;2023-07-13T06:37:56;4.70;;;1.30;;
57627;SDS011;43451;49.060;10.616;2023-07-13T06:40:22;4.38;;;1.23;;
57627;SDS011;43451;49.060;10.616;2023-07-13T06:42:47;5.45;;;1.42;;
57627;SDS011;43451;49.060;10.616;2023-07-13T06:45:13;1.98;;;1.17;;
57627;SDS011;43451;49.060;10.616;2023-07-13T06:47:39;4.78;;;1.33;;
57627;SDS011;43451;49.060;10.616;2023-07-13T06:50:04;8.95;;;1.40;;
57627;SDS011;43451;49.060;10.616;2023-07-13T06:52:30;3.58;;;1.33;;
57627;SDS011;43451;49.060;10.616;2023-07-13T06:54:56;5.55;;;1.30;;
57627;SDS011;43451;49.060;10.616;2023-07-13T06:57:21;3.13;;;1.23;;
57627;SDS011;43451;49.060;10.616;2023-07-13T06:59:47;3.78;;;1.50;;
57627;SDS011;43451;49.060;10.616;2023-07-13T07:02:13;4.47;;;1.30;;
57627;SDS011;43451;49.060;10.616;2023-07-13T07:04:39;3.60;;;1.48;;
57627;SDS011;43451;49.060;10.616;2023-07-13T07:07:04;2.65;;;1.33;;
57627;SDS011;43451;49.060;10.616;2023-07-13T07:09:29;3.58;;;1.30;;
57627;SDS011;43451;49.060;10.616;2023-07-13T07:11:56;3.88;;;1.30;;
57627;SDS011;43451;49.060;10.616;2023-07-13T07:14:23;4.03;;;1.40;;
57627;SDS011;43451;49.060;10.616;2023-07-13T07:16:49;4.40;;;1.50;;
57627;SDS011;43451;49.060;10.616;2023-07-13T07:19:15;4.95;;;1.50;;
57627;SDS011;43451;49.060;10.616;2023-07-13T07:21:41;4.15;;;1.33;;
57627;SDS011;43451;49.060;10.616;2023-07-13T07:24:07;5.57;;;1.30;;
57627;SDS011;43451;49.060;10.616;2023-07-13T07:26:33;4.63;;;1.50;;
57627;SDS011;43451;49.060;10.616;2023-07-13T07:28:58;5.88;;;1.50;;
57627;SDS011;43451;49.060;10.616;2023-07-13T07:31:24;4.82;;;1.30;;
57627;SDS011;43451;49.060;10.616;2023-07-13T07:33:50;2.60;;;1.30;;
57627;SDS011;43451;49.060;10.616;2023-07-13T07:36:16;3.88;;;1.35;;
57627;SDS011;43451;49.060;10.616;2023-07-13T07:38:42;5.13;;;1.70;;
57627;SDS011;43451;49.060;10.616;2023-07-13T07:41:08;4.95;;;1.33;;
57627;SDS011;43451;49.060;10.616;2023-07-13T07:43:34;3.33;;;1.30;;
57627;SDS011;43451;49.060;10.616;2023-07-13T07:46:00;2.75;;;1.40;;
57627;SDS011;43451;49.060;10.616;2023-07-13T07:48:26;2.90;;;1.48;;
57627;SDS011;43451;49.060;10.616;2023-07-13T07:50:52;3.47;;;1.10;;
57627;SDS011;43451;49.060;10.616;2023-07-13T07:53:17;2.90;;;1.38;;
57627;SDS011;43451;49.060;10.616;2023-07-13T07:55:43;2.65;;;1.30;;
57627;SDS011;43451;49.060;10.616;2023-07-13T07:58:08;2.53;;;1.25;;
57627;SDS011;43451;49.060;10.616;2023-07-13T08:00:34;3.88;;;1.42;;
57627;SDS011;43451;49.060;10.616;2023-07-13T08:03:00;3.47;;;1.38;;
57627;SDS011;43451;49.060;10.616;2023-07-13T08:05:26;5.65;;;1.30;;
57627;SDS011;43451;49.060;10.616;2023-07-13T08:07:52;4.75;;;1.35;;
57627;SDS011;43451;49.060;10.616;2023-07-13T08:10:18;3.40;;;1.20;;
57627;SDS011;43451;49.060;10.616;2023-07-13T08:12:43;4.35;;;1.10;;
57627;SDS011;43451;49.060;10.616;2023-07-13T08:15:10;4.78;;;1.38;;
57627;SDS011;43451;49.060;10.616;2023-07-13T08:17:37;2.65;;;1.20;;
57627;SDS011;43451;49.060;10.616;2023-07-13T08:20:03;2.33;;;1.10;;
57627;SDS011;43451;49.060;10.616;2023-07-13T08:22:29;3.03;;;1.17;;
57627;SDS011;43451;49.060;10.616;2023-07-13T08:24:55;5.90;;;1.20;;
57627;SDS011;43451;49.060;10.616;2023-07-13T08:27:21;2.85;;;1.20;;
57627;SDS011;43451;49.060;10.616;2023-07-13T08:29:51;2.53;;;1.20;;
57627;SDS011;43451;49.060;10.616;2023-07-13T08:32:18;5.65;;;1.55;;
57627;SDS011;43451;49.060;10.616;2023-07-13T08:34:44;2.63;;;1.25;;
57627;SDS011;43451;49.060;10.616;2023-07-13T08:37:10;3.40;;;1.20;;
57627;SDS011;43451;49.060;10.616;2023-07-13T08:39:36;3.72;;;1.10;;
57627;SDS011;43451;49.060;10.616;2023-07-13T08:42:06;2.78;;;1.10;;
57627;SDS011;43451;49.060;10.616;2023-07-13T08:44:46;3.65;;;1.35;;
57627;SDS011;43451;49.060;10.616;2023-07-13T08:47:37;9.57;;;1.60;;
57627;SDS011;43451;49.060;10.616;2023-07-13T08:50:09;5.45;;;1.20;;
57627;SDS011;43451;49.060;10.616;2023-07-13T08:52:41;2.55;;;1.10;;
57627;SDS011;43451;49.060;10.616;2023-07-13T08:55:21;4.43;;;1.38;;
57627;SDS011;43451;49.060;10.616;2023-07-13T08:57:56;4.20;;;1.20;;
57627;SDS011;43451;49.060;10.616;2023-07-13T09:00:31;3.08;;;1.17;;
57627;SDS011;43451;49.060;10.616;2023-07-13T09:03:03;2.95;;;1.15;;
57627;SDS011;43451;49.060;10.616;2023-07-13T09:05:31;2.38;;;1.15;;
57627;SDS011;43451;49.060;10.616;2023-07-13T09:11:17;5.97;;;1.27;;
57627;SDS011;43451;49.060;10.616;2023-07-13T09:16:43;2.88;;;1.35;;
57627;SDS011;43451;49.060;10.616;2023-07-13T09:19:13;3.78;;;1.30;;
57627;SDS011;43451;49.060;10.616;2023-07-13T09:21:47;4.47;;;1.30;;
57627;SDS011;43451;49.060;10.616;2023-07-13T09:24:24;6.03;;;1.33;;
57627;SDS011;43451;49.060;10.616;2023-07-13T09:26:51;3.58;;;1.15;;
57627;SDS011;43451;49.060;10.616;2023-07-13T09:29:23;3.75;;;1.10;;
57627;SDS011;43451;49.060;10.616;2023-07-13T09:31:54;2.45;;;1.20;;
57627;SDS011;43451;49.060;10.616;2023-07-13T09:34:23;3.00;;;1.10;;
57627;SDS011;43451;49.060;10.616;2023-07-13T09:36:49;14.45;;;1.90;;
57627;SDS011;43451;49.060;10.616;2023-07-13T09:39:25;3.33;;;1.02;;
57627;SDS011;43451;49.060;10.616;2023-07-13T09:41:57;4.00;;;1.00;;
57627;SDS011;43451;49.060;10.616;2023-07-13T09:44:55;2.85;;;1.10;;
57627;SDS011;43451;49.060;10.616;2023-07-13T09:47:28;5.40;;;1.02;;
57627;SDS011;43451;49.060;10.616;2023-07-13T09:50:04;3.72;;;1.10;;
57627;SDS011;43451;49.060;10.616;2023-07-13T09:55:25;3.60;;;1.25;;
57627;SDS011;43451;49.060;10.616;2023-07-13T09:57:54;3.13;;;1.10;;
57627;SDS011;43451;49.060;10.616;2023-07-13T10:00:27;2.38;;;1.20;;
57627;SDS011;43451;49.060;10.616;2023-07-13T10:05:28;5.68;;;1.13;;
57627;SDS011;43451;49.060;10.616;2023-07-13T10:08:03;4.57;;;1.10;;
57627;SDS011;43451;49.060;10.616;2023-07-13T10:10:31;2.17;;;1.05;;
57627;SDS011;43451;49.060;10.616;2023-07-13T10:12:56;2.33;;;0.93;;
57627;SDS011;43451;49.060;10.616;2023-07-13T10:15:23;4.03;;;1.10;;
57627;SDS011;43451;49.060;10.616;2023-07-13T10:17:51;2.38;;;1.00;;
57627;SDS011;43451;49.060;10.616;2023-07-13T10:20:18;3.60;;;1.10;;
57627;SDS011;43451;49.060;10.616;2023-07-13T10:22:49;3.58;;;1.30;;
57627;SDS011;43451;49.060;10.616;2023-07-13T10:25:26;2.40;;;1.08;;
57627;SDS011;43451;49.060;10.616;2023-07-13T10:28:04;3.10;;;1.10;;
57627;SDS011;43451;49.060;10.616;2023-07-13T10:30:42;3.97;;;1.00;;
57627;SDS011;43451;49.060;10.616;2023-07-13T10:33:11;2.35;;;1.10;;
57627;SDS011;43451;49.060;10.616;2023-07-13T10:35:39;2.50;;;0.90;;
57627;SDS011;43451;49.060;10.616;2023-07-13T10:38:10;2.40;;;1.10;;
57627;SDS011;43451;49.060;10.616;2023-07-13T10:40:40;3.17;;;1.10;;
57627;SDS011;43451;49.060;10.616;2023-07-13T10:43:27;3.53;;;1.10;;
57627;SDS011;43451;49.060;10.616;2023-07-13T10:45:55;2.13;;;1.13;;
57627;SDS011;43451;49.060;10.616;2023-07-13T10:48:21;3.35;;;1.10;;
57627;SDS011;43451;49.060;10.616;2023-07-13T10:50:49;3.00;;;1.10;;
57627;SDS011;43451;49.060;10.616;2023-07-13T10:53:31;1.90;;;0.98;;
57627;SDS011;43451;49.060;10.616;2023-07-13T10:58:44;2.97;;;1.23;;
57627;SDS011;43451;49.060;10.616;2023-07-13T11:01:12;2.72;;;1.02;;
57627;SDS011;43451;49.060;10.616;2023-07-13T11:04:00;1.67;;;1.02;;
57627;SDS011;43451;49.060;10.616;2023-07-13T11:08:55;4.82;;;1.30;;
57627;SDS011;43451;49.060;10.616;2023-07-13T11:13:58;4.35;;;1.25;;
57627;SDS011;43451;49.060;10.616;2023-07-13T11:16:43;3.08;;;1.05;;
57627;SDS011;43451;49.060;10.616;2023-07-13T11:27:34;2.67;;;1.20;;
57627;SDS011;43451;49.060;10.616;2023-07-13T11:36:10;3.13;;;0.90;;
57627;SDS011;43451;49.060;10.616;2023-07-13T11:41:06;2.95;;;1.13;;
57627;SDS011;43451;49.060;10.616;2023-07-13T11:43:39;2.90;;;0.98;;
57627;SDS011;43451;49.060;10.616;2023-07-13T11:46:13;1.92;;;0.90;;
57627;SDS011;43451;49.060;10.616;2023-07-13T11:48:39;3.50;;;1.00;;
57627;SDS011;43451;49.060;10.616;2023-07-13T11:51:05;2.08;;;1.15;;
57627;SDS011;43451;49.060;10.616;2023-07-13T11:53:36;3.50;;;1.05;;
57627;SDS011;43451;49.060;10.616;2023-07-13T11:56:06;2.40;;;1.15;;
57627;SDS011;43451;49.060;10.616;2023-07-13T11:58:31;3.20;;;1.30;;
57627;SDS011;43451;49.060;10.616;2023-07-13T12:00:58;2.63;;;1.00;;
57627;SDS011;43451;49.060;10.616;2023-07-13T12:03:27;3.75;;;1.25;;
57627;SDS011;43451;49.060;10.616;2023-07-13T12:08:26;3.20;;;1.15;;
57627;SDS011;43451;49.060;10.616;2023-07-13T12:10:59;2.15;;;0.95;;
57627;SDS011;43451;49.060;10.616;2023-07-13T12:13:36;2.83;;;1.20;;
57627;SDS011;43451;49.060;10.616;2023-07-13T12:16:27;2.17;;;1.10;;
57627;SDS011;43451;49.060;10.616;2023-07-13T12:18:58;3.85;;;1.10;;
57627;SDS011;43451;49.060;10.616;2023-07-13T12:21:30;3.30;;;1.17;;
57627;SDS011;43451;49.060;10.616;2023-07-13T12:24:04;3.67;;;1.17;;
57627;SDS011;43451;49.060;10.616;2023-07-13T12:26:30;2.50;;;1.15;;
57627;SDS011;43451;49.060;10.616;2023-07-13T12:28:58;4.50;;;1.20;;
57627;SDS011;43451;49.060;10.616;2023-07-13T12:33:57;1.90;;;1.13;;
57627;SDS011;43451;49.060;10.616;2023-07-13T12:36:24;4.65;;;2.03;;
57627;SDS011;43451;49.060;10.616;2023-07-13T12:38:50;3.42;;;1.27;;
57627;SDS011;43451;49.060;10.616;2023-07-13T12:41:16;2.40;;;1.38;;
57627;SDS011;43451;49.060;10.616;2023-07-13T12:43:42;3.63;;;1.20;;
57627;SDS011;43451;49.060;10.616;2023-07-13T12:48:47;2.20;;;1.15;;
57627;SDS011;43451;49.060;10.616;2023-07-13T12:51:21;2.63;;;1.10;;
57627;SDS011;43451;49.060;10.616;2023-07-13T12:53:48;3.95;;;1.33;;
57627;SDS011;43451;49.060;10.616;2023-07-13T12:56:21;3.50;;;1.15;;
57627;SDS011;43451;49.060;10.616;2023-07-13T12:58:49;12.85;;;1.80;;
57627;SDS011;43451;49.060;10.616;2023-07-13T13:01:20;4.20;;;1.30;;
57627;SDS011;43451;49.060;10.616;2023-07-13T13:03:51;3.80;;;1.30;;
57627;SDS011;43451;49.060;10.616;2023-07-13T13:08:53;1.95;;;1.33;;
57627;SDS011;43451;49.060;10.616;2023-07-13T13:11:20;1.98;;;1.10;;
57627;SDS011;43451;49.060;10.616;2023-07-13T13:13:48;2.80;;;1.20;;
57627;SDS011;43451;49.060;10.616;2023-07-13T13:16:18;3.00;;;1.13;;
57627;SDS011;43451;49.060;10.616;2023-07-13T13:19:22;2.60;;;1.13;;
57627;SDS011;43451;49.060;10.616;2023-07-13T13:21:50;3.67;;;1.27;;
57627;SDS011;43451;49.060;10.616;2023-07-13T13:24:19;1.92;;;1.20;;
57627;SDS011;43451;49.060;10.616;2023-07-13T13:26:46;1.80;;;1.10;;
57627;SDS011;43451;49.060;10.616;2023-07-13T13:31:41;5.10;;;1.52;;
57627;SDS011;43451;49.060;10.616;2023-07-13T13:34:11;2.37;;;1.10;;
57627;SDS011;43451;49.060;10.616;2023-07-13T13:36:39;2.70;;;1.00;;
57627;SDS011;43451;49.060;10.616;2023-07-13T13:39:15;2.75;;;1.10;;
57627;SDS011;43451;49.060;10.616;2023-07-13T13:41:46;3.03;;;1.08;;
57627;SDS011;43451;49.060;10.616;2023-07-13T13:44:14;3.42;;;1.23;;
57627;SDS011;43451;49.060;10.616;2023-07-13T13:46:41;4.53;;;1.20;;
57627;SDS011;43451;49.060;10.616;2023-07-13T13:49:13;4.40;;;1.05;;
57627;SDS011;43451;49.060;10.616;2023-07-13T13:51:41;2.78;;;1.02;;
57627;SDS011;43451;49.060;10.616;2023-07-13T13:54:10;4.68;;;1.40;;
57627;SDS011;43451;49.060;10.616;2023-07-13T13:56:41;3.80;;;1.15;;
57627;SDS011;43451;49.060;10.616;2023-07-13T13:59:08;3.20;;;1.15;;
57627;SDS011;43451;49.060;10.616;2023-07-13T14:01:34;2.15;;;1.20;;
57627;SDS011;43451;49.060;10.616;2023-07-13T14:04:00;1.40;;;1.08;;
57627;SDS011;43451;49.060;10.616;2023-07-13T14:06:26;2.75;;;1.00;;
57627;SDS011;43451;49.060;10.616;2023-07-13T14:08:53;2.30;;;1.20;;
57627;SDS011;43451;49.060;10.616;2023-07-13T14:13:50;3.70;;;1.20;;
57627;SDS011;43451;49.060;10.616;2023-07-13T14:16:20;4.00;;;1.25;;
57627;SDS011;43451;49.060;10.616;2023-07-13T14:18:47;6.22;;;1.10;;
57627;SDS011;43451;49.060;10.616;2023-07-13T14:21:19;2.78;;;1.17;;
57627;SDS011;43451;49.060;10.616;2023-07-13T14:23:46;6.20;;;1.65;;
57627;SDS011;43451;49.060;10.616;2023-07-13T14:26:14;3.97;;;1.50;;
57627;SDS011;43451;49.060;10.616;2023-07-13T14:28:42;2.75;;;1.20;;
57627;SDS011;43451;49.060;10.616;2023-07-13T14:31:10;1.85;;;1.05;;
57627;SDS011;43451;49.060;10.616;2023-07-13T14:33:37;3.75;;;1.15;;
57627;SDS011;43451;49.060;10.616;2023-07-13T14:36:03;3.30;;;1.10;;
57627;SDS011;43451;49.060;10.616;2023-07-13T14:38:41;3.88;;;1.10;;
57627;SDS011;43451;49.060;10.616;2023-07-13T14:41:07;5.78;;;1.38;;
57627;SDS011;43451;49.060;10.616;2023-07-13T14:43:33;3.63;;;1.23;;
57627;SDS011;43451;49.060;10.616;2023-07-13T14:45:59;4.40;;;1.40;;
57627;SDS011;43451;49.060;10.616;2023-07-13T14:48:25;2.58;;;1.13;;
57627;SDS011;43451;49.060;10.616;2023-07-13T14:50:56;4.88;;;1.38;;
57627;SDS011;43451;49.060;10.616;2023-07-13T14:53:24;2.83;;;1.27;;
57627;SDS011;43451;49.060;10.616;2023-07-13T14:55:54;1.75;;;1.10;;
57627;SDS011;43451;49.060;10.616;2023-07-13T14:58:20;2.78;;;1.20;;
57627;SDS011;43451;49.060;10.616;2023-07-13T15:00:45;2.83;;;1.23;;
57627;SDS011;43451;49.060;10.616;2023-07-13T15:03:17;4.55;;;1.30;;
57627;SDS011;43451;49.060;10.616;2023-07-13T15:05:49;2.55;;;1.40;;
57627;SDS011;43451;49.060;10.616;2023-07-13T15:08:15;3.72;;;1.40;;
57627;SDS011;43451;49.060;10.616;2023-07-13T15:10:41;2.58;;;1.65;;
57627;SDS011;43451;49.060;10.616;2023-07-13T15:13:17;2.55;;;1.08;;
57627;SDS011;43451;49.060;10.616;2023-07-13T15:15:49;4.47;;;1.27;;
57627;SDS011;43451;49.060;10.616;2023-07-13T15:18:18;3.42;;;1.30;;
57627;SDS011;43451;49.060;10.616;2023-07-13T15:20:47;2.90;;;1.20;;
57627;SDS011;43451;49.060;10.616;2023-07-13T15:23:14;1.52;;;1.00;;
57627;SDS011;43451;49.060;10.616;2023-07-13T15:25:41;2.90;;;1.20;;
57627;SDS011;43451;49.060;10.616;2023-07-13T15:28:09;4.15;;;1.52;;
57627;SDS011;43451;49.060;10.616;2023-07-13T15:30:42;1.70;;;1.10;;
57627;SDS011;43451;49.060;10.616;2023-07-13T15:33:14;3.90;;;1.13;;
57627;SDS011;43451;49.060;10.616;2023-07-13T15:35:42;2.92;;;1.25;;
57627;SDS011;43451;49.060;10.616;2023-07-13T15:38:13;1.90;;;1.10;;